sensor_id;sensor_type;location;lat;lon;timestamp;P1;durP1;ratioP1;P2;durP2;ratioP2
10959;SDS011;5532;50.978;13.872;2022-07-29T00:00:22;4.32;;;2.50;;
10959;SDS011;5532;50.978;13.872;2022-07-29T00:02:47;3.17;;;1.88;;
10959;SDS011;5532;50.978;13.872;2022-07-29T00:05:12;3.53;;;2.10;;
10959;SDS011;5532;50.978;13.872;2022-07-29T00:07:38;6.30;;;1.90;;
10959;SDS011;5532;50.978;13.872;2022-07-29T00:10:04;4.43;;;2.42;;
10959;SDS011;5532;50.978;13.872;2022-07-29T00:12:30;4.22;;;2.30;;
10959;SDS011;5532;50.978;13.872;2022-07-29T00:14:55;4.05;;;2.10;;
10959;SDS011;5532;50.978;13.872;2022-07-29T00:17:22;4.20;;;2.40;;
10959;SDS011;5532;50.978;13.872;2022-07-29T00:19:50;3.95;;;2.60;;
10959;SDS011;5532;50.978;13.872;2022-07-29T00:22:15;3.83;;;2.38;;
10959;SDS011;5532;50.978;13.872;2022-07-29T00:24:41;5.22;;;2.60;;
10959;SDS011;5532;50.978;13.872;2022-07-29T00:27:07;5.82;;;2.40;;
10959;SDS011;5532;50.978;13.872;2022-07-29T00:29:35;5.53;;;2.60;;
10959;SDS011;5532;50.978;13.872;2022-07-29T00:32:01;5.07;;;2.20;;
10959;SDS011;5532;50.978;13.872;2022-07-29T00:34:27;5.15;;;2.33;;
10959;SDS011;5532;50.978;13.872;2022-07-29T00:37:11;7.28;;;2.40;;
10959;SDS011;5532;50.978;13.872;2022-07-29T00:39:36;5.15;;;3.05;;
10959;SDS011;5532;50.978;13.872;2022-07-29T00:42:03;6.90;;;2.70;;
10959;SDS011;5532;50.978;13.872;2022-07-29T00:44:29;5.97;;;2.60;;
10959;SDS011;5532;50.978;13.872;2022-07-29T00:46:54;4.32;;;3.17;;
10959;SDS011;5532;50.978;13.872;2022-07-29T00:49:20;8.82;;;4.28;;
10959;SDS011;5532;50.978;13.872;2022-07-29T00:51:45;7.83;;;5.37;;
10959;SDS011;5532;50.978;13.872;2022-07-29T00:54:10;10.93;;;5.13;;
10959;SDS011;5532;50.978;13.872;2022-07-29T00:56:36;14.00;;;6.75;;
10959;SDS011;5532;50.978;13.872;2022-07-29T00:59:01;14.15;;;6.00;;
10959;SDS011;5532;50.978;13.872;2022-07-29T01:01:26;14.93;;;7.35;;
10959;SDS011;5532;50.978;13.872;2022-07-29T01:03:53;15.20;;;7.13;;
10959;SDS011;5532;50.978;13.872;2022-07-29T01:06:18;14.85;;;7.07;;
10959;SDS011;5532;50.978;13.872;2022-07-29T01:08:47;13.68;;;6.72;;
10959;SDS011;5532;50.978;13.872;2022-07-29T01:11:13;13.07;;;8.30;;
10959;SDS011;5532;50.978;13.872;2022-07-29T01:13:40;21.17;;;9.90;;
10959;SDS011;5532;50.978;13.872;2022-07-29T01:16:26;18.10;;;10.90;;
10959;SDS011;5532;50.978;13.872;2022-07-29T01:19:00;22.33;;;11.32;;
10959;SDS011;5532;50.978;13.872;2022-07-29T01:21:51;19.05;;;10.98;;
10959;SDS011;5532;50.978;13.872;2022-07-29T01:29:58;23.75;;;14.57;;
10959;SDS011;5532;50.978;13.872;2022-07-29T01:32:29;25.73;;;17.45;;
10959;SDS011;5532;50.978;13.872;2022-07-29T01:35:02;31.85;;;17.75;;
10959;SDS011;5532;50.978;13.872;2022-07-29T01:37:46;35.65;;;17.23;;
10959;SDS011;5532;50.978;13.872;2022-07-29T01:40:19;30.08;;;17.63;;
10959;SDS011;5532;50.978;13.872;2022-07-29T01:42:50;29.02;;;16.23;;
10959;SDS011;5532;50.978;13.872;2022-07-29T01:45:18;32.88;;;17.02;;
10959;SDS011;5532;50.978;13.872;2022-07-29T01:47:50;29.45;;;17.92;;
10959;SDS011;5532;50.978;13.872;2022-07-29T01:50:42;32.50;;;19.77;;
10959;SDS011;5532;50.978;13.872;2022-07-29T01:53:11;36.67;;;20.65;;
10959;SDS011;5532;50.978;13.872;2022-07-29T01:55:42;38.35;;;22.65;;
10959;SDS011;5532;50.978;13.872;2022-07-29T01:58:09;32.83;;;21.98;;
10959;SDS011;5532;50.978;13.872;2022-07-29T02:00:36;40.35;;;26.02;;
10959;SDS011;5532;50.978;13.872;2022-07-29T02:03:04;37.85;;;25.42;;
10959;SDS011;5532;50.978;13.872;2022-07-29T02:05:32;42.53;;;26.85;;
10959;SDS011;5532;50.978;13.872;2022-07-29T02:07:58;45.95;;;26.40;;
10959;SDS011;5532;50.978;13.872;2022-07-29T02:10:26;45.03;;;26.80;;
10959;SDS011;5532;50.978;13.872;2022-07-29T02:12:53;42.35;;;27.77;;
10959;SDS011;5532;50.978;13.872;2022-07-29T02:15:19;42.53;;;26.88;;
10959;SDS011;5532;50.978;13.872;2022-07-29T02:17:51;44.13;;;27.77;;
10959;SDS011;5532;50.978;13.872;2022-07-29T02:20:20;46.70;;;28.00;;
10959;SDS011;5532;50.978;13.872;2022-07-29T02:22:47;46.65;;;28.65;;
10959;SDS011;5532;50.978;13.872;2022-07-29T02:25:13;48.10;;;30.10;;
10959;SDS011;5532;50.978;13.872;2022-07-29T02:27:40;44.13;;;28.40;;
10959;SDS011;5532;50.978;13.872;2022-07-29T02:30:06;51.15;;;31.00;;
10959;SDS011;5532;50.978;13.872;2022-07-29T02:32:34;47.53;;;30.98;;
10959;SDS011;5532;50.978;13.872;2022-07-29T02:35:00;50.20;;;32.40;;
10959;SDS011;5532;50.978;13.872;2022-07-29T02:37:26;47.22;;;29.75;;
10959;SDS011;5532;50.978;13.872;2022-07-29T02:39:52;46.95;;;30.17;;
10959;SDS011;5532;50.978;13.872;2022-07-29T02:42:18;55.38;;;33.83;;
10959;SDS011;5532;50.978;13.872;2022-07-29T02:44:46;53.00;;;32.78;;
10959;SDS011;5532;50.978;13.872;2022-07-29T02:49:55;50.90;;;33.15;;
10959;SDS011;5532;50.978;13.872;2022-07-29T02:52:48;54.90;;;34.50;;
10959;SDS011;5532;50.978;13.872;2022-07-29T02:55:19;57.42;;;35.35;;
10959;SDS011;5532;50.978;13.872;2022-07-29T02:57:54;57.67;;;36.25;;
10959;SDS011;5532;50.978;13.872;2022-07-29T03:00:25;56.90;;;35.70;;
10959;SDS011;5532;50.978;13.872;2022-07-29T03:02:53;54.55;;;34.88;;
10959;SDS011;5532;50.978;13.872;2022-07-29T03:05:21;54.15;;;34.95;;
10959;SDS011;5532;50.978;13.872;2022-07-29T03:07:49;53.00;;;34.33;;
10959;SDS011;5532;50.978;13.872;2022-07-29T03:10:17;54.28;;;34.92;;
10959;SDS011;5532;50.978;13.872;2022-07-29T03:12:43;50.90;;;35.35;;
10959;SDS011;5532;50.978;13.872;2022-07-29T03:15:09;57.88;;;37.00;;
10959;SDS011;5532;50.978;13.872;2022-07-29T03:17:34;58.13;;;36.50;;
10959;SDS011;5532;50.978;13.872;2022-07-29T03:20:01;53.40;;;37.40;;
10959;SDS011;5532;50.978;13.872;2022-07-29T03:22:27;59.60;;;37.42;;
10959;SDS011;5532;50.978;13.872;2022-07-29T03:24:52;55.78;;;37.38;;
10959;SDS011;5532;50.978;13.872;2022-07-29T03:27:18;55.80;;;37.78;;
10959;SDS011;5532;50.978;13.872;2022-07-29T03:29:43;53.50;;;36.38;;
10959;SDS011;5532;50.978;13.872;2022-07-29T03:32:09;50.38;;;35.83;;
10959;SDS011;5532;50.978;13.872;2022-07-29T03:34:34;52.57;;;34.30;;
10959;SDS011;5532;50.978;13.872;2022-07-29T03:37:00;58.08;;;36.40;;
10959;SDS011;5532;50.978;13.872;2022-07-29T03:39:27;52.22;;;34.92;;
10959;SDS011;5532;50.978;13.872;2022-07-29T03:41:55;48.85;;;32.92;;
10959;SDS011;5532;50.978;13.872;2022-07-29T03:44:21;47.47;;;34.08;;
10959;SDS011;5532;50.978;13.872;2022-07-29T03:46:47;51.15;;;34.03;;
10959;SDS011;5532;50.978;13.872;2022-07-29T03:49:14;52.47;;;33.85;;
10959;SDS011;5532;50.978;13.872;2022-07-29T03:51:40;50.17;;;33.00;;
10959;SDS011;5532;50.978;13.872;2022-07-29T03:54:05;47.55;;;31.85;;
10959;SDS011;5532;50.978;13.872;2022-07-29T03:56:32;42.13;;;30.48;;
10959;SDS011;5532;50.978;13.872;2022-07-29T03:58:58;47.05;;;30.35;;
10959;SDS011;5532;50.978;13.872;2022-07-29T04:01:23;46.40;;;30.50;;
10959;SDS011;5532;50.978;13.872;2022-07-29T04:03:49;45.63;;;30.60;;
10959;SDS011;5532;50.978;13.872;2022-07-29T04:06:15;45.40;;;28.92;;
10959;SDS011;5532;50.978;13.872;2022-07-29T04:08:41;40.72;;;28.75;;
10959;SDS011;5532;50.978;13.872;2022-07-29T04:11:06;47.33;;;30.05;;
10959;SDS011;5532;50.978;13.872;2022-07-29T04:13:32;48.80;;;30.02;;
10959;SDS011;5532;50.978;13.872;2022-07-29T04:15:57;45.25;;;30.38;;
10959;SDS011;5532;50.978;13.872;2022-07-29T04:18:23;43.85;;;29.88;;
10959;SDS011;5532;50.978;13.872;2022-07-29T04:20:48;43.97;;;30.00;;
10959;SDS011;5532;50.978;13.872;2022-07-29T04:23:13;47.65;;;29.85;;
10959;SDS011;5532;50.978;13.872;2022-07-29T04:25:39;50.63;;;31.00;;
10959;SDS011;5532;50.978;13.872;2022-07-29T04:28:06;47.92;;;30.95;;
10959;SDS011;5532;50.978;13.872;2022-07-29T04:30:32;53.33;;;29.55;;
10959;SDS011;5532;50.978;13.872;2022-07-29T04:32:59;52.20;;;31.42;;
10959;SDS011;5532;50.978;13.872;2022-07-29T04:35:29;43.75;;;29.38;;
10959;SDS011;5532;50.978;13.872;2022-07-29T04:37:54;47.05;;;30.23;;
10959;SDS011;5532;50.978;13.872;2022-07-29T04:40:20;47.00;;;29.10;;
10959;SDS011;5532;50.978;13.872;2022-07-29T04:42:45;44.30;;;29.10;;
10959;SDS011;5532;50.978;13.872;2022-07-29T04:45:11;52.28;;;30.13;;
10959;SDS011;5532;50.978;13.872;2022-07-29T04:47:36;54.50;;;31.33;;
10959;SDS011;5532;50.978;13.872;2022-07-29T04:50:02;57.17;;;32.22;;
10959;SDS011;5532;50.978;13.872;2022-07-29T04:52:27;53.42;;;33.65;;
10959;SDS011;5532;50.978;13.872;2022-07-29T04:54:53;52.58;;;31.75;;
10959;SDS011;5532;50.978;13.872;2022-07-29T04:57:18;48.65;;;32.05;;
10959;SDS011;5532;50.978;13.872;2022-07-29T04:59:43;52.03;;;33.53;;
10959;SDS011;5532;50.978;13.872;2022-07-29T05:02:09;61.83;;;36.10;;
10959;SDS011;5532;50.978;13.872;2022-07-29T05:04:34;57.17;;;37.40;;
10959;SDS011;5532;50.978;13.872;2022-07-29T05:07:00;60.60;;;37.97;;
10959;SDS011;5532;50.978;13.872;2022-07-29T05:09:25;67.88;;;38.83;;
10959;SDS011;5532;50.978;13.872;2022-07-29T05:11:50;63.40;;;39.30;;
10959;SDS011;5532;50.978;13.872;2022-07-29T05:14:16;66.33;;;40.40;;
10959;SDS011;5532;50.978;13.872;2022-07-29T05:16:41;74.10;;;43.95;;
10959;SDS011;5532;50.978;13.872;2022-07-29T05:19:07;103.07;;;58.17;;
10959;SDS011;5532;50.978;13.872;2022-07-29T05:21:32;100.22;;;59.55;;
10959;SDS011;5532;50.978;13.872;2022-07-29T05:23:58;118.45;;;72.57;;
10959;SDS011;5532;50.978;13.872;2022-07-29T05:26:23;130.20;;;77.47;;
10959;SDS011;5532;50.978;13.872;2022-07-29T05:28:49;137.00;;;77.33;;
10959;SDS011;5532;50.978;13.872;2022-07-29T05:31:14;124.90;;;74.20;;
10959;SDS011;5532;50.978;13.872;2022-07-29T05:33:40;139.38;;;80.30;;
10959;SDS011;5532;50.978;13.872;2022-07-29T05:36:06;138.77;;;82.70;;
10959;SDS011;5532;50.978;13.872;2022-07-29T05:38:31;149.10;;;85.75;;
10959;SDS011;5532;50.978;13.872;2022-07-29T05:40:57;134.82;;;74.18;;
10959;SDS011;5532;50.978;13.872;2022-07-29T05:43:24;144.25;;;87.90;;
10959;SDS011;5532;50.978;13.872;2022-07-29T05:45:49;139.43;;;84.88;;
10959;SDS011;5532;50.978;13.872;2022-07-29T05:48:15;168.43;;;98.23;;
10959;SDS011;5532;50.978;13.872;2022-07-29T05:50:40;154.13;;;89.57;;
10959;SDS011;5532;50.978;13.872;2022-07-29T05:53:06;146.93;;;91.33;;
10959;SDS011;5532;50.978;13.872;2022-07-29T05:55:31;152.00;;;91.93;;
10959;SDS011;5532;50.978;13.872;2022-07-29T05:57:56;145.82;;;88.63;;
10959;SDS011;5532;50.978;13.872;2022-07-29T06:00:21;152.32;;;90.28;;
10959;SDS011;5532;50.978;13.872;2022-07-29T06:02:47;169.82;;;102.28;;
10959;SDS011;5532;50.978;13.872;2022-07-29T06:05:12;167.67;;;101.37;;
10959;SDS011;5532;50.978;13.872;2022-07-29T06:07:38;184.85;;;110.05;;
10959;SDS011;5532;50.978;13.872;2022-07-29T06:10:04;201.48;;;122.53;;
10959;SDS011;5532;50.978;13.872;2022-07-29T06:12:29;189.05;;;109.88;;
10959;SDS011;5532;50.978;13.872;2022-07-29T06:14:55;197.80;;;115.88;;
10959;SDS011;5532;50.978;13.872;2022-07-29T06:17:20;187.63;;;111.72;;
10959;SDS011;5532;50.978;13.872;2022-07-29T06:19:46;181.27;;;110.20;;
10959;SDS011;5532;50.978;13.872;2022-07-29T06:22:11;194.82;;;117.95;;
10959;SDS011;5532;50.978;13.872;2022-07-29T06:24:36;199.90;;;114.80;;
10959;SDS011;5532;50.978;13.872;2022-07-29T06:27:04;171.40;;;103.57;;
10959;SDS011;5532;50.978;13.872;2022-07-29T06:29:30;172.43;;;104.90;;
10959;SDS011;5532;50.978;13.872;2022-07-29T06:31:55;196.13;;;114.40;;
10959;SDS011;5532;50.978;13.872;2022-07-29T06:34:20;171.75;;;107.07;;
10959;SDS011;5532;50.978;13.872;2022-07-29T06:36:46;173.70;;;105.82;;
10959;SDS011;5532;50.978;13.872;2022-07-29T06:39:11;188.90;;;113.60;;
10959;SDS011;5532;50.978;13.872;2022-07-29T06:41:37;176.52;;;109.30;;
10959;SDS011;5532;50.978;13.872;2022-07-29T06:44:02;186.50;;;112.57;;
10959;SDS011;5532;50.978;13.872;2022-07-29T06:46:29;190.43;;;109.70;;
10959;SDS011;5532;50.978;13.872;2022-07-29T06:48:54;169.07;;;104.35;;
10959;SDS011;5532;50.978;13.872;2022-07-29T06:51:20;165.07;;;100.10;;
10959;SDS011;5532;50.978;13.872;2022-07-29T06:53:45;153.32;;;96.22;;
10959;SDS011;5532;50.978;13.872;2022-07-29T06:56:11;172.50;;;105.95;;
10959;SDS011;5532;50.978;13.872;2022-07-29T06:58:38;171.02;;;104.28;;
10959;SDS011;5532;50.978;13.872;2022-07-29T07:01:05;169.18;;;102.32;;
10959;SDS011;5532;50.978;13.872;2022-07-29T07:03:31;155.18;;;96.38;;
10959;SDS011;5532;50.978;13.872;2022-07-29T07:05:57;138.88;;;87.20;;
10959;SDS011;5532;50.978;13.872;2022-07-29T07:08:22;150.50;;;92.55;;
10959;SDS011;5532;50.978;13.872;2022-07-29T07:10:49;158.85;;;97.75;;
10959;SDS011;5532;50.978;13.872;2022-07-29T07:13:17;150.23;;;95.25;;
10959;SDS011;5532;50.978;13.872;2022-07-29T07:15:46;143.88;;;87.10;;
10959;SDS011;5532;50.978;13.872;2022-07-29T07:18:13;149.98;;;91.75;;
10959;SDS011;5532;50.978;13.872;2022-07-29T07:20:39;147.20;;;88.00;;
10959;SDS011;5532;50.978;13.872;2022-07-29T07:23:05;128.18;;;77.18;;
10959;SDS011;5532;50.978;13.872;2022-07-29T07:25:30;117.47;;;71.75;;
10959;SDS011;5532;50.978;13.872;2022-07-29T07:27:56;119.03;;;70.60;;
10959;SDS011;5532;50.978;13.872;2022-07-29T07:30:21;110.85;;;68.60;;
10959;SDS011;5532;50.978;13.872;2022-07-29T07:32:46;109.35;;;67.53;;
10959;SDS011;5532;50.978;13.872;2022-07-29T07:35:12;112.03;;;67.85;;
10959;SDS011;5532;50.978;13.872;2022-07-29T07:37:38;117.72;;;71.43;;
10959;SDS011;5532;50.978;13.872;2022-07-29T07:40:05;122.45;;;75.22;;
10959;SDS011;5532;50.978;13.872;2022-07-29T07:42:31;122.05;;;75.63;;
10959;SDS011;5532;50.978;13.872;2022-07-29T07:44:57;118.97;;;75.15;;
10959;SDS011;5532;50.978;13.872;2022-07-29T07:47:22;112.28;;;68.82;;
10959;SDS011;5532;50.978;13.872;2022-07-29T07:49:49;94.43;;;60.28;;
10959;SDS011;5532;50.978;13.872;2022-07-29T07:52:15;84.63;;;54.85;;
10959;SDS011;5532;50.978;13.872;2022-07-29T07:54:41;91.38;;;57.85;;
10959;SDS011;5532;50.978;13.872;2022-07-29T07:57:08;80.45;;;51.17;;
10959;SDS011;5532;50.978;13.872;2022-07-29T07:59:34;76.53;;;49.72;;
10959;SDS011;5532;50.978;13.872;2022-07-29T08:01:59;71.25;;;44.80;;
10959;SDS011;5532;50.978;13.872;2022-07-29T08:04:25;62.63;;;38.67;;
10959;SDS011;5532;50.978;13.872;2022-07-29T08:06:51;57.40;;;37.53;;
10959;SDS011;5532;50.978;13.872;2022-07-29T08:09:19;61.30;;;39.83;;
10959;SDS011;5532;50.978;13.872;2022-07-29T08:11:46;59.63;;;39.38;;
10959;SDS011;5532;50.978;13.872;2022-07-29T08:14:12;67.60;;;42.67;;
10959;SDS011;5532;50.978;13.872;2022-07-29T08:16:38;58.92;;;40.60;;
10959;SDS011;5532;50.978;13.872;2022-07-29T08:19:04;62.60;;;39.92;;
10959;SDS011;5532;50.978;13.872;2022-07-29T08:21:30;57.72;;;37.67;;
10959;SDS011;5532;50.978;13.872;2022-07-29T08:23:55;55.50;;;36.67;;
10959;SDS011;5532;50.978;13.872;2022-07-29T08:26:44;52.28;;;32.05;;
10959;SDS011;5532;50.978;13.872;2022-07-29T08:29:09;45.78;;;29.33;;
10959;SDS011;5532;50.978;13.872;2022-07-29T08:31:38;41.95;;;28.88;;
10959;SDS011;5532;50.978;13.872;2022-07-29T08:34:04;43.17;;;29.42;;
10959;SDS011;5532;50.978;13.872;2022-07-29T08:36:30;48.40;;;31.42;;
10959;SDS011;5532;50.978;13.872;2022-07-29T08:38:55;44.22;;;30.20;;
10959;SDS011;5532;50.978;13.872;2022-07-29T08:41:21;41.70;;;27.42;;
10959;SDS011;5532;50.978;13.872;2022-07-29T08:43:47;42.80;;;26.80;;
10959;SDS011;5532;50.978;13.872;2022-07-29T08:46:13;38.17;;;23.48;;
10959;SDS011;5532;50.978;13.872;2022-07-29T08:48:39;34.83;;;20.80;;
10959;SDS011;5532;50.978;13.872;2022-07-29T08:51:05;33.75;;;22.52;;
10959;SDS011;5532;50.978;13.872;2022-07-29T08:53:32;31.85;;;21.30;;
10959;SDS011;5532;50.978;13.872;2022-07-29T08:55:58;33.50;;;21.63;;
10959;SDS011;5532;50.978;13.872;2022-07-29T08:58:23;34.83;;;19.75;;
10959;SDS011;5532;50.978;13.872;2022-07-29T09:00:51;33.13;;;20.55;;
10959;SDS011;5532;50.978;13.872;2022-07-29T09:03:18;30.27;;;20.13;;
10959;SDS011;5532;50.978;13.872;2022-07-29T09:05:45;35.38;;;21.80;;
10959;SDS011;5532;50.978;13.872;2022-07-29T09:08:12;31.73;;;21.98;;
10959;SDS011;5532;50.978;13.872;2022-07-29T09:10:38;32.92;;;22.73;;
10959;SDS011;5532;50.978;13.872;2022-07-29T09:13:03;38.25;;;24.83;;
10959;SDS011;5532;50.978;13.872;2022-07-29T09:15:29;32.38;;;21.30;;
10959;SDS011;5532;50.978;13.872;2022-07-29T09:17:55;37.35;;;24.50;;
10959;SDS011;5532;50.978;13.872;2022-07-29T09:20:21;32.50;;;21.40;;
10959;SDS011;5532;50.978;13.872;2022-07-29T09:22:48;29.92;;;20.52;;
10959;SDS011;5532;50.978;13.872;2022-07-29T09:25:14;38.20;;;22.15;;
10959;SDS011;5532;50.978;13.872;2022-07-29T09:27:40;40.28;;;25.27;;
10959;SDS011;5532;50.978;13.872;2022-07-29T09:30:07;34.53;;;21.40;;
10959;SDS011;5532;50.978;13.872;2022-07-29T09:35:23;32.17;;;20.48;;
10959;SDS011;5532;50.978;13.872;2022-07-29T09:37:49;29.15;;;20.25;;
10959;SDS011;5532;50.978;13.872;2022-07-29T09:40:16;28.45;;;18.50;;
10959;SDS011;5532;50.978;13.872;2022-07-29T09:42:42;26.63;;;17.65;;
10959;SDS011;5532;50.978;13.872;2022-07-29T09:45:08;25.55;;;15.23;;
10959;SDS011;5532;50.978;13.872;2022-07-29T09:47:41;22.17;;;15.27;;
10959;SDS011;5532;50.978;13.872;2022-07-29T09:50:10;21.17;;;15.05;;
10959;SDS011;5532;50.978;13.872;2022-07-29T09:52:44;22.70;;;14.18;;
10959;SDS011;5532;50.978;13.872;2022-07-29T09:55:13;22.13;;;13.45;;
10959;SDS011;5532;50.978;13.872;2022-07-29T09:57:39;14.57;;;9.50;;
10959;SDS011;5532;50.978;13.872;2022-07-29T10:00:08;15.73;;;10.40;;
10959;SDS011;5532;50.978;13.872;2022-07-29T10:02:36;17.05;;;11.60;;
10959;SDS011;5532;50.978;13.872;2022-07-29T10:05:03;10.82;;;7.15;;
10959;SDS011;5532;50.978;13.872;2022-07-29T10:07:47;6.78;;;4.82;;
10959;SDS011;5532;50.978;13.872;2022-07-29T10:10:20;12.90;;;6.32;;
10959;SDS011;5532;50.978;13.872;2022-07-29T10:12:50;6.22;;;4.93;;
10959;SDS011;5532;50.978;13.872;2022-07-29T10:15:17;6.60;;;4.80;;
10959;SDS011;5532;50.978;13.872;2022-07-29T10:17:42;11.70;;;8.10;;
10959;SDS011;5532;50.978;13.872;2022-07-29T10:20:08;10.38;;;5.90;;
10959;SDS011;5532;50.978;13.872;2022-07-29T10:22:34;16.02;;;6.25;;
10959;SDS011;5532;50.978;13.872;2022-07-29T10:25:00;9.80;;;4.25;;
10959;SDS011;5532;50.978;13.872;2022-07-29T10:27:25;12.40;;;5.53;;
10959;SDS011;5532;50.978;13.872;2022-07-29T10:29:51;9.73;;;4.57;;
10959;SDS011;5532;50.978;13.872;2022-07-29T10:32:21;20.57;;;5.03;;
10959;SDS011;5532;50.978;13.872;2022-07-29T10:40:39;16.30;;;5.40;;
10959;SDS011;5532;50.978;13.872;2022-07-29T10:43:31;8.13;;;4.97;;
10959;SDS011;5532;50.978;13.872;2022-07-29T10:46:01;5.22;;;3.45;;
10959;SDS011;5532;50.978;13.872;2022-07-29T10:48:28;5.57;;;3.25;;
10959;SDS011;5532;50.978;13.872;2022-07-29T10:53:20;5.70;;;3.28;;
10959;SDS011;5532;50.978;13.872;2022-07-29T10:55:46;6.93;;;3.75;;
10959;SDS011;5532;50.978;13.872;2022-07-29T10:58:18;3.97;;;3.20;;
10959;SDS011;5532;50.978;13.872;2022-07-29T11:00:52;4.63;;;3.08;;
10959;SDS011;5532;50.978;13.872;2022-07-29T11:06:05;5.22;;;3.25;;
10959;SDS011;5532;50.978;13.872;2022-07-29T11:08:31;5.47;;;4.03;;
10959;SDS011;5532;50.978;13.872;2022-07-29T11:11:41;7.35;;;5.75;;
10959;SDS011;5532;50.978;13.872;2022-07-29T11:16:11;2.95;;;2.58;;
10959;SDS011;5532;50.978;13.872;2022-07-29T11:18:55;5.13;;;3.38;;
10959;SDS011;5532;50.978;13.872;2022-07-29T11:21:37;3.60;;;2.85;;
10959;SDS011;5532;50.978;13.872;2022-07-29T11:24:17;4.18;;;2.90;;
10959;SDS011;5532;50.978;13.872;2022-07-29T11:27:04;3.90;;;2.95;;
10959;SDS011;5532;50.978;13.872;2022-07-29T11:29:35;3.13;;;2.63;;
10959;SDS011;5532;50.978;13.872;2022-07-29T11:32:14;4.55;;;3.08;;
10959;SDS011;5532;50.978;13.872;2022-07-29T11:34:42;3.95;;;2.80;;
10959;SDS011;5532;50.978;13.872;2022-07-29T11:39:34;9.15;;;4.43;;
10959;SDS011;5532;50.978;13.872;2022-07-29T11:47:41;6.75;;;3.78;;
10959;SDS011;5532;50.978;13.872;2022-07-29T11:50:28;11.00;;;4.40;;
10959;SDS011;5532;50.978;13.872;2022-07-29T11:52:55;6.30;;;4.25;;
10959;SDS011;5532;50.978;13.872;2022-07-29T11:55:22;14.02;;;4.85;;
10959;SDS011;5532;50.978;13.872;2022-07-29T11:57:48;6.30;;;4.10;;
10959;SDS011;5532;50.978;13.872;2022-07-29T12:00:48;6.25;;;4.03;;
10959;SDS011;5532;50.978;13.872;2022-07-29T12:03:09;7.63;;;3.88;;
10959;SDS011;5532;50.978;13.872;2022-07-29T12:05:42;7.15;;;3.80;;
10959;SDS011;5532;50.978;13.872;2022-07-29T12:08:16;4.30;;;3.08;;
10959;SDS011;5532;50.978;13.872;2022-07-29T12:10:46;3.60;;;2.95;;
10959;SDS011;5532;50.978;13.872;2022-07-29T12:13:13;4.78;;;3.60;;
10959;SDS011;5532;50.978;13.872;2022-07-29T12:15:39;4.57;;;2.95;;
10959;SDS011;5532;50.978;13.872;2022-07-29T12:18:15;3.50;;;3.03;;
10959;SDS011;5532;50.978;13.872;2022-07-29T12:20:42;4.35;;;3.03;;
10959;SDS011;5532;50.978;13.872;2022-07-29T12:23:08;5.55;;;3.78;;
10959;SDS011;5532;50.978;13.872;2022-07-29T12:25:34;4.15;;;3.58;;
10959;SDS011;5532;50.978;13.872;2022-07-29T12:28:05;5.90;;;3.40;;
10959;SDS011;5532;50.978;13.872;2022-07-29T12:30:39;5.10;;;3.33;;
10959;SDS011;5532;50.978;13.872;2022-07-29T12:33:10;4.32;;;3.30;;
10959;SDS011;5532;50.978;13.872;2022-07-29T12:35:37;4.43;;;3.80;;
10959;SDS011;5532;50.978;13.872;2022-07-29T12:38:02;3.72;;;3.42;;
10959;SDS011;5532;50.978;13.872;2022-07-29T12:40:28;4.18;;;3.10;;
10959;SDS011;5532;50.978;13.872;2022-07-29T12:43:10;7.45;;;3.28;;
10959;SDS011;5532;50.978;13.872;2022-07-29T12:45:46;5.18;;;2.97;;
10959;SDS011;5532;50.978;13.872;2022-07-29T12:48:17;4.32;;;3.00;;
10959;SDS011;5532;50.978;13.872;2022-07-29T12:50:56;4.40;;;3.38;;
10959;SDS011;5532;50.978;13.872;2022-07-29T12:53:23;4.35;;;3.08;;
10959;SDS011;5532;50.978;13.872;2022-07-29T12:55:50;3.58;;;3.00;;
10959;SDS011;5532;50.978;13.872;2022-07-29T12:58:29;4.38;;;2.83;;
10959;SDS011;5532;50.978;13.872;2022-07-29T13:01:15;3.42;;;3.08;;
10959;SDS011;5532;50.978;13.872;2022-07-29T13:03:58;3.58;;;2.80;;
10959;SDS011;5532;50.978;13.872;2022-07-29T13:06:31;3.58;;;2.75;;
10959;SDS011;5532;50.978;13.872;2022-07-29T13:11:35;3.83;;;2.67;;
10959;SDS011;5532;50.978;13.872;2022-07-29T13:14:04;6.35;;;4.20;;
10959;SDS011;5532;50.978;13.872;2022-07-29T13:16:31;16.92;;;4.88;;
10959;SDS011;5532;50.978;13.872;2022-07-29T13:19:31;17.88;;;5.32;;
10959;SDS011;5532;50.978;13.872;2022-07-29T13:21:57;7.40;;;3.50;;
10959;SDS011;5532;50.978;13.872;2022-07-29T13:24:22;10.50;;;3.63;;
10959;SDS011;5532;50.978;13.872;2022-07-29T13:26:47;25.77;;;5.17;;
10959;SDS011;5532;50.978;13.872;2022-07-29T13:29:13;14.53;;;3.80;;
10959;SDS011;5532;50.978;13.872;2022-07-29T13:31:38;12.57;;;4.73;;
10959;SDS011;5532;50.978;13.872;2022-07-29T13:34:03;16.17;;;4.55;;
10959;SDS011;5532;50.978;13.872;2022-07-29T13:36:29;8.13;;;3.63;;
10959;SDS011;5532;50.978;13.872;2022-07-29T13:38:54;9.13;;;3.97;;
10959;SDS011;5532;50.978;13.872;2022-07-29T13:41:19;4.47;;;3.45;;
10959;SDS011;5532;50.978;13.872;2022-07-29T13:43:45;4.17;;;3.30;;
10959;SDS011;5532;50.978;13.872;2022-07-29T13:46:10;7.32;;;3.40;;
10959;SDS011;5532;50.978;13.872;2022-07-29T13:48:36;7.35;;;4.15;;
10959;SDS011;5532;50.978;13.872;2022-07-29T13:51:01;5.60;;;3.33;;
10959;SDS011;5532;50.978;13.872;2022-07-29T13:53:26;7.90;;;3.47;;
10959;SDS011;5532;50.978;13.872;2022-07-29T13:55:53;4.60;;;2.78;;
10959;SDS011;5532;50.978;13.872;2022-07-29T13:58:19;3.92;;;3.08;;
10959;SDS011;5532;50.978;13.872;2022-07-29T14:00:45;8.03;;;3.10;;
10959;SDS011;5532;50.978;13.872;2022-07-29T14:03:11;4.88;;;2.88;;
10959;SDS011;5532;50.978;13.872;2022-07-29T14:05:36;4.75;;;3.00;;
10959;SDS011;5532;50.978;13.872;2022-07-29T14:08:02;3.57;;;2.80;;
10959;SDS011;5532;50.978;13.872;2022-07-29T14:10:27;3.57;;;2.87;;
10959;SDS011;5532;50.978;13.872;2022-07-29T14:12:52;5.00;;;2.90;;
10959;SDS011;5532;50.978;13.872;2022-07-29T14:15:18;5.87;;;3.20;;
10959;SDS011;5532;50.978;13.872;2022-07-29T14:17:43;3.45;;;2.90;;
10959;SDS011;5532;50.978;13.872;2022-07-29T14:20:08;3.67;;;3.00;;
10959;SDS011;5532;50.978;13.872;2022-07-29T14:22:34;6.38;;;3.50;;
10959;SDS011;5532;50.978;13.872;2022-07-29T14:24:59;3.27;;;2.93;;
10959;SDS011;5532;50.978;13.872;2022-07-29T14:27:25;5.60;;;3.00;;
10959;SDS011;5532;50.978;13.872;2022-07-29T14:29:50;3.93;;;3.20;;
10959;SDS011;5532;50.978;13.872;2022-07-29T14:32:15;4.03;;;2.77;;
10959;SDS011;5532;50.978;13.872;2022-07-29T14:34:41;3.57;;;2.80;;
10959;SDS011;5532;50.978;13.872;2022-07-29T14:37:06;3.30;;;2.63;;
10959;SDS011;5532;50.978;13.872;2022-07-29T14:39:32;4.60;;;3.30;;
10959;SDS011;5532;50.978;13.872;2022-07-29T14:41:58;5.93;;;3.13;;
10959;SDS011;5532;50.978;13.872;2022-07-29T14:44:23;4.00;;;3.60;;
10959;SDS011;5532;50.978;13.872;2022-07-29T14:46:53;6.88;;;3.30;;
10959;SDS011;5532;50.978;13.872;2022-07-29T14:49:19;3.73;;;3.13;;
10959;SDS011;5532;50.978;13.872;2022-07-29T14:51:44;4.63;;;3.13;;
10959;SDS011;5532;50.978;13.872;2022-07-29T14:54:09;4.50;;;3.30;;
10959;SDS011;5532;50.978;13.872;2022-07-29T14:56:35;5.30;;;3.45;;
10959;SDS011;5532;50.978;13.872;2022-07-29T14:59:00;3.40;;;3.10;;
10959;SDS011;5532;50.978;13.872;2022-07-29T15:01:25;5.18;;;3.92;;
10959;SDS011;5532;50.978;13.872;2022-07-29T15:03:52;7.28;;;3.60;;
10959;SDS011;5532;50.978;13.872;2022-07-29T15:06:17;4.45;;;3.20;;